createdAt,value
2023-02-18T00:00:27.338Z,98515.06
2023-02-18T00:02:41.795Z,98510.88
2023-02-18T00:04:49.811Z,98499.78
2023-02-18T00:06:57.610Z,98500.97
2023-02-18T00:09:07.029Z,98500.03
2023-02-18T00:11:15.587Z,98502.88
2023-02-18T00:13:23.670Z,98490.25
2023-02-18T00:15:31.420Z,98487.22
2023-02-18T00:17:41.962Z,98502.09
2023-02-18T00:19:49.747Z,98505.97
2023-02-18T00:21:57.532Z,98513.44
2023-02-18T00:24:06.360Z,98511.19
2023-02-18T00:26:16.370Z,98512.59
2023-02-18T00:28:24.478Z,98504.25
2023-02-18T00:30:32.332Z,98502.34
2023-02-18T00:32:43.128Z,98505.00
2023-02-18T00:34:52.302Z,98505.88
2023-02-18T00:37:00.142Z,98507.66
2023-02-18T00:39:11.008Z,98501.75
2023-02-18T00:41:20.795Z,98502.34
2023-02-18T00:43:29.216Z,98505.88
2023-02-18T00:45:37.117Z,98506.22
2023-02-18T00:47:47.792Z,98501.84
2023-02-18T00:49:55.608Z,98496.16
2023-02-18T00:52:03.435Z,98496.25
2023-02-18T00:54:11.242Z,98479.50
2023-02-18T00:56:19.553Z,98480.78
2023-02-18T00:58:27.460Z,98487.06
2023-02-18T01:00:35.456Z,98485.16
2023-02-18T01:02:44.072Z,98483.31
2023-02-18T01:04:54.753Z,98487.22
2023-02-18T01:07:02.619Z,98489.13
2023-02-18T01:09:10.555Z,98488.69
2023-02-18T01:11:19.301Z,98487.47
2023-02-18T01:13:28.359Z,98495.41
2023-02-18T01:15:36.307Z,98487.22
2023-02-18T01:17:44.629Z,98478.03
2023-02-18T01:19:55.322Z,98471.25
2023-02-18T01:22:06.925Z,98471.25
2023-02-18T01:24:15.965Z,98468.84
2023-02-18T01:26:23.776Z,98470.84
2023-02-18T01:28:31.758Z,98463.09
2023-02-18T01:30:39.604Z,98467.38
2023-02-18T01:32:47.887Z,98463.97
2023-02-18T01:34:58.520Z,98465.53
2023-02-18T01:37:09.060Z,98469.19
2023-02-18T01:39:16.962Z,98463.53
2023-02-18T01:41:25.380Z,98464.31
2023-02-18T01:43:33.566Z,98464.56
2023-02-18T01:46:00.358Z,98473.31
2023-02-18T01:48:12.964Z,98470.91
2023-02-18T01:50:23.809Z,98478.56
2023-02-18T01:52:33.446Z,98470.94
2023-02-18T01:54:46.231Z,98470.41
2023-02-18T01:56:57.961Z,98476.56
2023-02-18T01:59:10.783Z,98468.84
2023-02-18T02:01:18.793Z,98468.34
2023-02-18T02:03:26.529Z,98466.28
2023-02-18T02:05:37.636Z,98467.38
2023-02-18T02:07:47.673Z,98458.13
2023-02-18T02:09:57.771Z,98454.34
2023-02-18T02:12:41.024Z,98444.56
2023-02-18T02:15:07.971Z,98449.97
2023-02-18T02:17:25.344Z,98437.19
2023-02-18T02:20:08.803Z,98432.13
2023-02-18T02:23:07.529Z,98445.84
2023-02-18T02:25:41.966Z,98449.19
2023-02-18T02:28:24.664Z,98450.50
2023-02-18T02:31:13.633Z,98443.28
2023-02-18T02:33:49.339Z,98440.34
2023-02-18T02:36:06.720Z,98436.91
2023-02-18T02:38:22.007Z,98440.34
2023-02-18T02:40:38.171Z,98439.56
2023-02-18T02:42:56.097Z,98443.63
2023-02-18T02:45:10.451Z,98435.38
2023-02-18T02:47:29.545Z,98432.16
2023-02-18T02:49:44.951Z,98431.41
2023-02-18T02:52:02.553Z,98425.59
2023-02-18T02:54:18.980Z,98420.00
2023-02-18T02:56:28.384Z,98426.34
2023-02-18T02:58:36.914Z,98421.28
2023-02-18T03:01:00.232Z,98424.78
2023-02-18T03:03:45.735Z,98415.09
2023-02-18T03:06:14.444Z,98418.09
2023-02-18T03:08:46.508Z,98427.25
2023-02-18T03:11:04.459Z,98429.59
2023-02-18T03:13:19.273Z,98412.53
2023-02-18T03:15:39.666Z,98424.63
2023-02-18T03:17:54.632Z,98427.44
2023-02-18T03:20:09.916Z,98427.56
2023-02-18T03:22:24.475Z,98431.84
2023-02-18T03:24:40.163Z,98424.19
2023-02-18T03:26:53.474Z,98417.81
2023-02-18T03:29:05.810Z,98414.53
2023-02-18T03:31:17.574Z,98411.78
2023-02-18T03:33:31.602Z,98405.75
2023-02-18T03:35:41.556Z,98401.16
2023-02-18T03:37:54.201Z,98401.00
2023-02-18T03:40:06.855Z,98392.66
2023-02-18T03:42:15.043Z,98390.84
2023-02-18T03:44:22.939Z,98384.69
2023-02-18T03:46:32.930Z,98393.41
2023-02-18T03:48:40.711Z,98390.75
2023-02-18T03:50:48.585Z,98386.63
2023-02-18T03:52:56.599Z,98388.69
2023-02-18T03:55:09.432Z,98387.34
2023-02-18T03:57:17.236Z,98390.69
2023-02-18T03:59:25.013Z,98404.63
2023-02-18T04:01:33.304Z,98400.50
2023-02-18T04:03:41.342Z,98411.38
2023-02-18T04:05:49.160Z,98409.63
2023-02-18T04:07:57.421Z,98399.00
2023-02-18T04:10:09.743Z,98399.25
2023-02-18T04:12:17.596Z,98397.06
2023-02-18T04:14:25.565Z,98399.81
2023-02-18T04:16:33.688Z,98408.03
2023-02-18T04:18:41.718Z,98404.03
2023-02-18T04:20:49.506Z,98405.78
2023-02-18T04:22:58.551Z,98401.19
2023-02-18T04:25:09.982Z,98398.25
2023-02-18T04:27:17.845Z,98397.38
2023-02-18T04:29:25.805Z,98393.94
2023-02-18T04:31:33.886Z,98394.31
2023-02-18T04:33:41.672Z,98396.69
2023-02-18T04:35:49.439Z,98394.53
2023-02-18T04:37:57.251Z,98391.19
2023-02-18T04:40:05.072Z,98392.91
2023-02-18T04:42:15.560Z,98399.38
2023-02-18T04:44:23.580Z,98395.06
2023-02-18T04:46:31.561Z,98396.47
2023-02-18T04:48:39.395Z,98403.97
2023-02-18T04:50:47.764Z,98391.84
2023-02-18T04:52:55.696Z,98400.84
2023-02-18T04:55:03.957Z,98397.03
2023-02-18T04:57:11.874Z,98402.72
2023-02-18T04:59:22.521Z,98405.06
2023-02-18T05:01:30.606Z,98393.16
2023-02-18T05:03:38.482Z,98405.75
2023-02-18T05:05:46.269Z,98401.84
2023-02-18T05:07:54.036Z,98412.53
2023-02-18T05:10:01.820Z,98408.63
2023-02-18T05:12:10.631Z,98405.44
2023-02-18T05:14:18.734Z,98401.63
2023-02-18T05:16:29.640Z,98402.06
2023-02-18T05:18:37.675Z,98398.06
2023-02-18T05:20:47.064Z,98393.34
2023-02-18T05:22:54.920Z,98401.75
2023-02-18T05:25:02.717Z,98399.44
2023-02-18T05:27:10.507Z,98400.78
2023-02-18T05:29:18.452Z,98392.88
2023-02-18T05:31:29.028Z,98392.97
2023-02-18T05:33:37.122Z,98393.84
2023-02-18T05:35:45.199Z,98389.47
2023-02-18T05:37:52.990Z,98383.28
2023-02-18T05:40:00.786Z,98384.06
2023-02-18T05:42:08.920Z,98379.69
2023-02-18T05:44:29.157Z,98384.16
2023-02-18T05:46:39.563Z,98391.00
2023-02-18T05:48:47.411Z,98380.84
2023-02-18T05:50:57.555Z,98382.72
2023-02-18T05:53:06.691Z,98374.53
2023-02-18T05:55:14.915Z,98383.03
2023-02-18T05:57:23.005Z,98383.66
2023-02-18T05:59:30.937Z,98375.53
2023-02-18T06:01:41.357Z,98386.31
2023-02-18T06:03:49.211Z,98375.41
2023-02-18T06:05:57.534Z,98376.16
2023-02-18T06:08:05.769Z,98378.41
2023-02-18T06:10:14.509Z,98370.53
2023-02-18T06:12:22.576Z,98375.53
2023-02-18T06:14:30.514Z,98372.34
2023-02-18T06:16:41.082Z,98371.66
2023-02-18T06:18:48.990Z,98373.81
2023-02-18T06:20:57.042Z,98379.00
2023-02-18T06:23:07.038Z,98369.47
2023-02-18T06:25:15.392Z,98373.28
2023-02-18T06:27:23.680Z,98378.50
2023-02-18T06:30:07.504Z,98387.50
2023-02-18T06:32:43.895Z,98380.38
2023-02-18T06:34:54.705Z,98377.72
2023-02-18T06:37:02.913Z,98376.03
2023-02-18T06:39:11.526Z,98384.06
2023-02-18T06:41:19.613Z,98382.03
2023-02-18T06:43:27.527Z,98378.81
2023-02-18T06:45:35.569Z,98376.25
2023-02-18T06:47:45.989Z,98368.19
2023-02-18T06:49:53.956Z,98378.19
2023-02-18T06:52:01.814Z,98378.59
2023-02-18T06:54:09.714Z,98375.69
2023-02-18T06:56:17.599Z,98380.16
2023-02-18T06:58:26.180Z,98384.84
2023-02-18T07:00:34.715Z,98387.66
2023-02-18T07:02:48.197Z,98385.47
2023-02-18T07:04:56.224Z,98385.88
2023-02-18T07:07:03.999Z,98388.19
2023-02-18T07:09:15.007Z,98382.53
2023-02-18T07:11:22.920Z,98381.16
2023-02-18T07:13:30.961Z,98383.66
2023-02-18T07:15:38.918Z,98387.22
2023-02-18T07:17:49.704Z,98390.84
2023-02-18T07:19:58.055Z,98387.38
2023-02-18T07:22:06.164Z,98386.09
2023-02-18T07:24:14.338Z,98383.47
2023-02-18T07:26:22.284Z,98386.75
2023-02-18T07:28:30.067Z,98393.28
2023-02-18T07:30:38.097Z,98394.41
2023-02-18T07:32:46.058Z,98385.56
2023-02-18T07:34:57.160Z,98383.91
2023-02-18T07:37:09.357Z,98396.47
2023-02-18T07:39:20.724Z,98391.31
2023-02-18T07:41:28.819Z,98388.31
2023-02-18T07:43:36.710Z,98383.63
2023-02-18T07:45:45.174Z,98379.25
2023-02-18T07:47:53.104Z,98374.75
2023-02-18T07:50:03.779Z,98372.59
2023-02-18T07:52:11.669Z,98375.75
2023-02-18T07:54:20.247Z,98380.00
2023-02-18T07:56:28.395Z,98372.13
2023-02-18T07:58:38.064Z,98374.59
2023-02-18T08:00:47.698Z,98363.28
2023-02-18T08:02:55.468Z,98366.06
2023-02-18T08:05:05.912Z,98364.44
2023-02-18T08:07:16.187Z,98362.00
2023-02-18T08:09:24.132Z,98372.38
2023-02-18T08:11:31.937Z,98364.69
2023-02-18T08:13:39.640Z,98366.13
2023-02-18T08:15:47.927Z,98368.44
2023-02-18T08:17:55.774Z,98366.53
2023-02-18T08:20:06.338Z,98356.72
2023-02-18T08:22:14.176Z,98370.06
2023-02-18T08:24:22.143Z,98368.78
2023-02-18T08:26:30.623Z,98374.53
2023-02-18T08:28:38.775Z,98372.06
2023-02-18T08:30:48.804Z,98370.75
2023-02-18T08:32:57.016Z,98373.91
2023-02-18T08:35:08.768Z,98370.59
2023-02-18T08:37:16.638Z,98373.28
2023-02-18T08:39:24.564Z,98366.50
2023-02-18T08:41:32.549Z,98362.50
2023-02-18T08:43:40.633Z,98359.38
2023-02-18T08:45:48.816Z,98354.97
2023-02-18T08:48:16.645Z,98361.09
2023-02-18T08:50:28.321Z,98364.91
2023-02-18T08:52:36.151Z,98363.19
2023-02-18T08:54:44.026Z,98360.31
2023-02-18T08:56:52.048Z,98359.28
2023-02-18T08:58:59.958Z,98362.47
2023-02-18T09:01:11.021Z,98365.50
2023-02-18T09:03:19.305Z,98354.72
2023-02-18T09:05:30.845Z,98357.69
2023-02-18T09:07:38.731Z,98361.00
2023-02-18T09:09:46.494Z,98354.09
2023-02-18T09:11:54.370Z,98348.50
2023-02-18T09:14:03.099Z,98352.84
2023-02-18T09:16:14.714Z,98347.66
2023-02-18T09:18:22.559Z,98354.38
2023-02-18T09:20:33.167Z,98357.63
2023-02-18T09:22:41.164Z,98350.41
2023-02-18T09:24:49.122Z,98345.34
2023-02-18T09:26:57.975Z,98340.88
2023-02-18T09:29:07.314Z,98346.69
2023-02-18T09:31:17.183Z,98340.31
2023-02-18T09:33:25.747Z,98342.38
2023-02-18T09:35:36.305Z,98334.97
2023-02-18T09:37:44.236Z,98337.50
2023-02-18T09:39:52.423Z,98321.59
2023-02-18T09:42:02.410Z,98317.16
2023-02-18T09:44:16.942Z,98334.38
2023-02-18T09:46:27.850Z,98318.63
2023-02-18T09:48:39.354Z,98324.72
2023-02-18T09:50:55.179Z,98325.19
2023-02-18T09:53:04.634Z,98318.25
2023-02-18T09:55:22.027Z,98323.13
2023-02-18T09:57:38.962Z,98322.16
2023-02-18T09:59:47.751Z,98316.38
2023-02-18T10:01:58.033Z,98328.47
2023-02-18T10:04:13.152Z,98317.34
2023-02-18T10:06:28.446Z,98324.63
2023-02-18T10:08:39.073Z,98324.28
2023-02-18T10:10:48.728Z,98324.50
2023-02-18T10:12:58.313Z,98317.03
2023-02-18T10:15:06.533Z,98324.94
2023-02-18T10:17:19.422Z,98326.47
2023-02-18T10:19:32.700Z,98320.53
2023-02-18T10:21:43.863Z,98312.44
2023-02-18T10:24:01.048Z,98319.97
2023-02-18T10:26:13.213Z,98315.78
2023-02-18T10:28:26.184Z,98318.38
2023-02-18T10:30:40.553Z,98312.06
2023-02-18T10:32:48.759Z,98326.22
2023-02-18T10:35:03.069Z,98321.72
2023-02-18T10:37:32.464Z,98324.50
2023-02-18T10:39:56.972Z,98332.00
2023-02-18T10:42:16.292Z,98329.13
2023-02-18T10:44:33.993Z,98325.47
2023-02-18T10:46:51.404Z,98322.16
2023-02-18T10:49:19.065Z,98322.69
2023-02-18T10:51:32.025Z,98328.53
2023-02-18T10:53:47.102Z,98331.78
2023-02-18T10:55:56.925Z,98327.81
2023-02-18T10:58:26.856Z,98319.06
2023-02-18T11:00:41.792Z,98330.59
2023-02-18T11:03:03.566Z,98323.53
2023-02-18T11:05:22.578Z,98327.38
2023-02-18T11:07:35.430Z,98318.28
2023-02-18T11:09:50.999Z,98316.44
2023-02-18T11:12:08.635Z,98290.94
2023-02-18T11:14:36.553Z,98304.97
2023-02-18T11:16:47.612Z,98314.13
2023-02-18T11:18:55.534Z,98296.69
2023-02-18T11:21:04.830Z,98291.59
2023-02-18T11:23:22.274Z,98286.94
2023-02-18T11:25:36.783Z,98286.03
2023-02-18T11:27:47.452Z,98285.41
2023-02-18T11:29:59.064Z,98280.91
2023-02-18T11:32:07.595Z,98270.88
2023-02-18T11:34:21.489Z,98274.25
2023-02-18T11:36:33.292Z,98272.22
2023-02-18T11:38:47.841Z,98259.94
2023-02-18T11:41:03.257Z,98264.94
2023-02-18T11:43:17.778Z,98274.22
2023-02-18T11:45:34.212Z,98269.66
2023-02-18T11:47:42.192Z,98278.28
2023-02-18T11:50:04.036Z,98266.47
2023-02-18T11:52:21.786Z,98262.03
2023-02-18T11:54:32.755Z,98247.13
2023-02-18T11:56:43.618Z,98254.75
2023-02-18T11:58:53.588Z,98250.25
2023-02-18T12:01:09.446Z,98250.84
2023-02-18T12:03:35.185Z,98252.94
2023-02-18T12:05:43.791Z,98260.75
2023-02-18T12:07:54.108Z,98256.31
2023-02-18T12:10:05.695Z,98254.28
2023-02-18T12:12:21.051Z,98253.09
2023-02-18T12:14:28.987Z,98245.03
2023-02-18T12:16:47.585Z,98252.06
2023-02-18T12:19:09.096Z,98242.72
2023-02-18T12:21:48.472Z,98247.81
2023-02-18T12:24:06.996Z,98242.69
2023-02-18T12:26:25.429Z,98231.75
2023-02-18T12:28:48.913Z,98237.66
2023-02-18T12:31:25.235Z,98240.97
2023-02-18T12:33:43.952Z,98227.41
2023-02-18T12:36:11.830Z,98221.88
2023-02-18T12:38:46.896Z,98231.94
2023-02-18T12:41:08.717Z,98224.34
2023-02-18T12:43:27.367Z,98234.97
2023-02-18T12:46:00.715Z,98217.84
2023-02-18T12:48:21.850Z,98222.06
2023-02-18T12:50:51.676Z,98228.47
2023-02-18T12:53:18.085Z,98227.25
2023-02-18T12:56:00.952Z,98225.31
2023-02-18T12:58:17.458Z,98218.25
2023-02-18T13:00:50.518Z,98218.84
2023-02-18T13:03:14.521Z,98230.78
2023-02-18T13:05:34.064Z,98229.47
2023-02-18T13:08:03.479Z,98224.91
2023-02-18T13:10:27.126Z,98233.16
2023-02-18T13:12:44.004Z,98230.47
2023-02-18T13:14:58.796Z,98224.88
2023-02-18T13:17:13.719Z,98229.94
2023-02-18T13:19:25.429Z,98210.16
2023-02-18T13:21:34.931Z,98222.84
2023-02-18T13:23:48.948Z,98217.84
2023-02-18T13:26:01.294Z,98234.88
2023-02-18T13:28:18.538Z,98217.44
2023-02-18T13:30:31.872Z,98214.75
2023-02-18T13:32:51.502Z,98203.25
2023-02-18T13:35:08.228Z,98207.19
2023-02-18T13:37:24.194Z,98203.47
2023-02-18T13:39:33.118Z,98198.84
2023-02-18T13:41:43.489Z,98199.06
2023-02-18T13:43:52.094Z,98202.63
2023-02-18T13:46:14.663Z,98203.63
2023-02-18T13:48:30.380Z,98205.19
2023-02-18T13:50:46.302Z,98200.22
2023-02-18T13:52:55.492Z,98193.81
2023-02-18T13:55:04.285Z,98202.69
2023-02-18T13:57:18.559Z,98194.13
2023-02-18T13:59:34.528Z,98209.63
2023-02-18T14:01:46.583Z,98201.34
2023-02-18T14:04:00.099Z,98192.44
2023-02-18T14:06:18.486Z,98196.25
2023-02-18T14:08:36.434Z,98186.03
2023-02-18T14:10:44.499Z,98180.78
2023-02-18T14:13:26.548Z,98178.78
2023-02-18T14:15:57.582Z,98172.31
2023-02-18T14:18:37.150Z,98165.63
2023-02-18T14:20:55.795Z,98173.59
2023-02-18T14:23:05.482Z,98169.75
2023-02-18T14:25:29.785Z,98165.59
2023-02-18T14:27:38.493Z,98168.09
2023-02-18T14:29:47.076Z,98163.16
2023-02-18T14:31:59.478Z,98166.41
2023-02-18T14:34:50.247Z,98160.22
2023-02-18T14:37:14.401Z,98165.25
2023-02-18T14:39:39.056Z,98167.78
2023-02-18T14:41:56.543Z,98170.59
2023-02-18T14:44:30.776Z,98162.03
2023-02-18T14:46:50.177Z,98162.28
2023-02-18T14:49:15.413Z,98161.16
2023-02-18T14:51:26.786Z,98158.38
2023-02-18T14:53:43.758Z,98155.13
2023-02-18T14:55:55.123Z,98158.41
2023-02-18T14:58:06.103Z,98142.38
2023-02-18T15:00:19.786Z,98163.75
2023-02-18T15:02:31.005Z,98164.91
2023-02-18T15:04:39.583Z,98158.78
2023-02-18T15:06:47.652Z,98152.53
2023-02-18T15:08:59.273Z,98163.97
2023-02-18T15:11:10.453Z,98165.97
2023-02-18T15:13:23.024Z,98161.91
2023-02-18T15:15:31.194Z,98157.09
2023-02-18T15:17:39.168Z,98160.59
2023-02-18T15:19:51.940Z,98154.69
2023-02-18T15:22:00.884Z,98155.72
2023-02-18T15:24:18.990Z,98150.97
2023-02-18T15:26:26.968Z,98151.38
2023-02-18T15:28:36.673Z,98154.22
2023-02-18T15:30:48.420Z,98153.00
2023-02-18T15:32:57.789Z,98152.81
2023-02-18T15:35:17.100Z,98150.91
2023-02-18T15:37:25.262Z,98153.91
2023-02-18T15:39:38.801Z,98153.59
2023-02-18T15:41:46.882Z,98158.78
2023-02-18T15:43:57.958Z,98144.13
2023-02-18T15:46:16.399Z,98144.63
2023-02-18T15:48:35.656Z,98154.94
2023-02-18T15:50:53.029Z,98152.03
2023-02-18T15:53:07.201Z,98140.59
2023-02-18T15:55:25.820Z,98140.16
2023-02-18T15:57:34.222Z,98137.94
2023-02-18T15:59:47.787Z,98140.63
2023-02-18T16:01:58.322Z,98130.03
2023-02-18T16:04:10.136Z,98133.25
2023-02-18T16:06:24.903Z,98129.09
2023-02-18T16:08:32.973Z,98129.91
2023-02-18T16:11:00.919Z,98127.78
2023-02-18T16:13:10.342Z,98125.66
2023-02-18T16:15:23.047Z,98119.88
2023-02-18T16:17:32.806Z,98125.97
2023-02-18T16:20:03.322Z,98115.72
2023-02-18T16:22:26.542Z,98125.00
2023-02-18T16:24:35.695Z,98119.97
2023-02-18T16:26:46.587Z,98119.34
2023-02-18T16:28:56.583Z,98120.22
2023-02-18T16:31:53.096Z,98111.25
2023-02-18T16:34:01.004Z,98119.03
2023-02-18T16:36:09.918Z,98120.19
2023-02-18T16:38:32.504Z,98113.56
2023-02-18T16:40:46.069Z,98116.66
2023-02-18T16:42:59.620Z,98108.75
2023-02-18T16:45:12.653Z,98109.50
2023-02-18T16:47:24.287Z,98110.56
2023-02-18T16:49:33.226Z,98094.16
2023-02-18T16:52:18.808Z,98092.09
2023-02-18T16:54:36.898Z,98087.63
2023-02-18T16:56:51.005Z,98102.97
2023-02-18T16:59:12.827Z,98100.94
2023-02-18T17:01:27.371Z,98086.66
2023-02-18T17:03:36.231Z,98096.59
2023-02-18T17:05:48.546Z,98099.03
2023-02-18T17:07:56.557Z,98101.69
2023-02-18T17:10:04.583Z,98111.16
2023-02-18T17:12:13.485Z,98100.50
2023-02-18T17:14:38.200Z,98100.53
2023-02-18T17:16:46.558Z,98106.69
2023-02-18T17:18:54.491Z,98107.78
2023-02-18T17:21:03.360Z,98109.91
2023-02-18T17:23:13.975Z,98119.06
2023-02-18T17:25:25.777Z,98121.59
2023-02-18T17:27:33.619Z,98129.19
2023-02-18T17:29:44.099Z,98129.44
2023-02-18T17:31:59.066Z,98128.03
2023-02-18T17:34:10.020Z,98129.09
2023-02-18T17:36:17.891Z,98130.69
2023-02-18T17:38:25.838Z,98151.13
2023-02-18T17:40:34.085Z,98149.38
2023-02-18T17:42:41.921Z,98158.31
2023-02-18T17:44:52.607Z,98159.72
2023-02-18T17:47:00.457Z,98164.69
2023-02-18T17:49:08.464Z,98165.19
2023-02-18T17:51:25.611Z,98171.44
2023-02-18T17:53:33.469Z,98171.38
2023-02-18T17:55:42.805Z,98164.03
2023-02-18T17:57:50.725Z,98162.31
2023-02-18T18:00:01.124Z,98166.88
2023-02-18T18:02:27.678Z,98162.38
2023-02-18T18:04:35.488Z,98159.16
2023-02-18T18:06:44.094Z,98157.53
2023-02-18T18:08:52.148Z,98163.91
2023-02-18T18:11:03.192Z,98165.75
2023-02-18T18:13:15.952Z,98167.69
2023-02-18T18:15:30.758Z,98177.28
2023-02-18T18:17:38.951Z,98172.13
2023-02-18T18:19:46.714Z,98185.34
2023-02-18T18:21:54.618Z,98177.56
2023-02-18T18:24:02.462Z,98180.34
2023-02-18T18:26:10.542Z,98175.94
2023-02-18T18:28:18.245Z,98176.06
2023-02-18T18:30:31.453Z,98178.03
2023-02-18T18:32:39.247Z,98183.69
2023-02-18T18:34:49.168Z,98182.63
2023-02-18T18:36:57.252Z,98184.16
2023-02-18T18:39:05.238Z,98190.44
2023-02-18T18:41:16.909Z,98195.09
2023-02-18T18:43:27.096Z,98193.88
2023-02-18T18:45:40.212Z,98190.44
2023-02-18T18:47:48.940Z,98179.84
2023-02-18T18:49:56.876Z,98186.53
2023-02-18T18:52:04.866Z,98196.94
2023-02-18T18:54:14.800Z,98198.56
2023-02-18T18:56:22.685Z,98204.34
2023-02-18T18:58:31.805Z,98204.34
2023-02-18T19:00:44.563Z,98200.28
2023-02-18T19:02:52.628Z,98198.06
2023-02-18T19:05:03.766Z,98202.72
2023-02-18T19:07:11.542Z,98207.69
2023-02-18T19:09:19.417Z,98211.38
2023-02-18T19:11:27.377Z,98205.78
2023-02-18T19:13:36.751Z,98210.25
2023-02-18T19:15:48.433Z,98214.63
2023-02-18T19:18:00.119Z,98206.06
2023-02-18T19:20:09.580Z,98214.84
2023-02-18T19:22:17.666Z,98216.16
2023-02-18T19:24:25.451Z,98215.97
2023-02-18T19:26:36.721Z,98223.13
2023-02-18T19:28:44.726Z,98218.66
2023-02-18T19:30:55.561Z,98220.25
2023-02-18T19:33:05.053Z,98219.22
2023-02-18T19:35:13.407Z,98221.50
2023-02-18T19:37:23.303Z,98215.44
2023-02-18T19:39:33.822Z,98220.09
2023-02-18T19:41:41.716Z,98223.41
2023-02-18T19:43:49.946Z,98223.03
2023-02-18T19:46:03.539Z,98217.41
2023-02-18T19:48:14.047Z,98219.97
2023-02-18T19:50:22.167Z,98214.94
2023-02-18T19:52:30.674Z,98211.91
2023-02-18T19:54:39.285Z,98216.47
2023-02-18T19:56:47.344Z,98214.75
2023-02-18T19:58:58.601Z,98214.28
2023-02-18T20:01:14.692Z,98218.00
2023-02-18T20:03:22.722Z,98212.88
2023-02-18T20:05:30.539Z,98221.31
2023-02-18T20:07:39.219Z,98219.13
2023-02-18T20:09:47.686Z,98215.31
2023-02-18T20:11:55.673Z,98224.28
2023-02-18T20:14:03.864Z,98222.47
2023-02-18T20:16:15.374Z,98223.13
2023-02-18T20:18:23.259Z,98220.28
2023-02-18T20:20:31.364Z,98217.75
2023-02-18T20:22:39.420Z,98220.97
2023-02-18T20:24:48.101Z,98223.53
2023-02-18T20:26:55.884Z,98222.09
2023-02-18T20:29:03.701Z,98222.78
2023-02-18T20:31:15.692Z,98215.25
2023-02-18T20:33:23.780Z,98215.06
2023-02-18T20:35:31.673Z,98211.25
2023-02-18T20:37:39.568Z,98213.16
2023-02-18T20:39:47.474Z,98209.44
2023-02-18T20:41:56.792Z,98219.63
2023-02-18T20:44:05.725Z,98211.59
2023-02-18T20:46:19.080Z,98218.25
2023-02-18T20:48:26.865Z,98214.09
2023-02-18T20:50:35.217Z,98217.03
2023-02-18T20:52:43.311Z,98209.25
2023-02-18T20:54:51.193Z,98211.44
2023-02-18T20:56:59.638Z,98213.16
2023-02-18T20:59:08.312Z,98210.06
2023-02-18T21:01:20.961Z,98205.03
2023-02-18T21:03:29.356Z,98214.06
2023-02-18T21:05:37.196Z,98205.50
2023-02-18T21:07:45.120Z,98208.91
2023-02-18T21:09:53.060Z,98210.25
2023-02-18T21:12:00.983Z,98213.66
2023-02-18T21:14:08.836Z,98210.06
2023-02-18T21:16:20.591Z,98210.16
2023-02-18T21:18:28.665Z,98204.75
2023-02-18T21:20:36.588Z,98207.16
2023-02-18T21:22:44.470Z,98203.28
2023-02-18T21:24:53.926Z,98209.94
2023-02-18T21:27:04.985Z,98213.06
2023-02-18T21:29:12.887Z,98210.47
2023-02-18T21:31:25.823Z,98212.22
2023-02-18T21:33:34.062Z,98209.72
2023-02-18T21:35:43.686Z,98207.22
2023-02-18T21:37:51.473Z,98202.59
2023-02-18T21:40:00.359Z,98209.94
2023-02-18T21:42:08.220Z,98208.13
2023-02-18T21:44:16.035Z,98211.69
2023-02-18T21:46:28.863Z,98216.09
2023-02-18T21:48:49.146Z,98208.44
2023-02-18T21:50:56.978Z,98204.78
2023-02-18T21:53:06.964Z,98204.28
2023-02-18T21:55:15.191Z,98203.75
2023-02-18T21:57:23.667Z,98201.56
2023-02-18T21:59:33.098Z,98197.09
2023-02-18T22:01:44.624Z,98201.84
2023-02-18T22:03:52.410Z,98198.16
2023-02-18T22:06:00.534Z,98200.69
2023-02-18T22:08:09.106Z,98199.34
2023-02-18T22:10:17.706Z,98201.03
2023-02-18T22:12:26.480Z,98187.09
2023-02-18T22:14:34.568Z,98194.19
2023-02-18T22:16:45.381Z,98195.34
2023-02-18T22:18:53.202Z,98193.69
2023-02-18T22:21:01.622Z,98189.16
2023-02-18T22:23:09.528Z,98195.25
2023-02-18T22:25:17.556Z,98194.75
2023-02-18T22:27:27.204Z,98193.94
2023-02-18T22:29:35.741Z,98189.19
2023-02-18T22:31:47.140Z,98181.19
2023-02-18T22:33:56.176Z,98189.44
2023-02-18T22:36:05.104Z,98187.03
2023-02-18T22:38:13.003Z,98182.66
2023-02-18T22:40:21.204Z,98182.25
2023-02-18T22:42:29.516Z,98180.19
2023-02-18T22:44:39.413Z,98173.53
2023-02-18T22:46:50.092Z,98168.09
2023-02-18T22:48:59.414Z,98170.06
2023-02-18T22:51:09.686Z,98166.22
2023-02-18T22:53:17.835Z,98166.47
2023-02-18T22:55:25.712Z,98160.84
2023-02-18T22:57:33.538Z,98153.72
2023-02-18T22:59:41.688Z,98151.84
2023-02-18T23:01:53.327Z,98154.16
2023-02-18T23:04:09.950Z,98140.47
2023-02-18T23:06:18.960Z,98144.91
2023-02-18T23:08:26.683Z,98130.16
2023-02-18T23:10:34.672Z,98129.31
2023-02-18T23:12:42.616Z,98130.44
2023-02-18T23:14:50.451Z,98127.69
2023-02-18T23:17:17.975Z,98125.38
2023-02-18T23:19:35.062Z,98121.09
2023-02-18T23:21:42.886Z,98117.22
2023-02-18T23:23:52.931Z,98112.34
2023-02-18T23:26:03.834Z,98105.41
2023-02-18T23:28:11.936Z,98098.22
2023-02-18T23:30:20.249Z,98095.72
2023-02-18T23:32:32.112Z,98087.59
2023-02-18T23:34:40.711Z,98089.22
2023-02-18T23:36:49.345Z,98083.31
2023-02-18T23:38:59.623Z,98084.41
2023-02-18T23:41:08.197Z,98077.13
2023-02-18T23:43:16.406Z,98076.72
2023-02-18T23:45:24.336Z,98079.91
2023-02-18T23:47:34.872Z,98081.00
2023-02-18T23:49:42.818Z,98064.38
2023-02-18T23:51:50.795Z,98068.47
2023-02-18T23:53:58.798Z,98070.53
2023-02-18T23:56:10.356Z,98061.06
2023-02-18T23:58:18.255Z,98057.00
